Karen Sue — WDI3416 — position and weather

sailwx.info

Track history (hours):
 
Tides and Currents Weather Stations Pressure Air Temp Water Temp Dewpoint Dewpoint Depression Visibility Wind Speed Wind Dir Waves Ship Positions

Karen Sue

Owner: Karen Sue, LLC, Ventura, CA. More information available from US FCC via Universal Licensing System and Coast Guard Vessel Documentation Center.

Last reported at 2018-Apr-27 13:52 UTC. Time now 2018-May-26 03:53 UTC.
Position N 36°37' W 121°54'.
Warning: this ship's position is 28 days out of date.

Length 20 m.

Type: Fishing. MMSI: 367688090.

Date/timePositionNaut miles runAvg speedWind from/ knotsBaromVisibWave heightAir tempDewpointWater temp
2018-Apr-27 13:52N 36°37' W 121°54'1 2.0
2018-Apr-27 13:27N 36°36' W 121°53'0 0.0
2018-Apr-27 12:57N 36°36' W 121°53'0 0.0
2018-Apr-27 12:27N 36°36' W 121°53'0 0.0
2018-Apr-27 11:57N 36°36' W 121°53'0 0.0
2018-Apr-27 11:27N 36°36' W 121°53'0 0.0
2018-Apr-27 10:57N 36°36' W 121°53'0 0.0
2018-Apr-27 10:27N 36°36' W 121°53'0 0.0
2018-Apr-27 09:57N 36°36' W 121°53'0 0.4
2018-Apr-27 09:21N 36°36' W 121°53'0 0.0
2018-Apr-27 08:51N 36°36' W 121°53'0 0.0
2018-Apr-27 08:30N 36°36' W 121°53'0 0.1
2018-Apr-27 07:26N 36°36' W 121°53'1 0.9
2018-Apr-27 05:51N 36°37' W 121°52'0 0.2
2018-Apr-27 04:12N 36°37' W 121°52'0 0.1
2018-Apr-27 03:59N 36°37' W 121°52'2 0.9
2018-Apr-27 02:07N 36°38' W 121°54'1 7.7
2018-Apr-27 01:58N 36°38' W 121°52'1 1.0
2018-Apr-27 01:14N 36°37' W 121°52'0 0.4
2018-Apr-27 00:44N 36°37' W 121°52'0 0.2
2018-Apr-27 00:28N 36°37' W 121°52'1 0.5
2018-Apr-26 21:52N 36°37' W 121°53'0 0.0
2018-Apr-26 21:22N 36°37' W 121°53'0 0.0
2018-Apr-26 20:52N 36°37' W 121°53'0 0.0
2018-Apr-26 20:16N 36°37' W 121°53'0 0.0
2018-Apr-26 19:58N 36°37' W 121°53'0 0.0
2018-Apr-26 19:22N 36°37' W 121°53'0 0.0
2018-Apr-26 18:46N 36°37' W 121°53'0 0.0
2018-Apr-26 18:19N 36°37' W 121°53'0 0.0
2018-Apr-26 17:55N 36°37' W 121°53'0 0.0
2018-Apr-26 17:25N 36°37' W 121°53'0 0.0
2018-Apr-26 16:55N 36°37' W 121°53'0 0.0
2018-Apr-26 16:22N 36°37' W 121°53'1 0.4
2018-Apr-26 13:59N 36°38' W 121°54'1 1.8
2018-Apr-26 13:13N 36°37' W 121°53'0 0.0
2018-Apr-26 12:49N 36°37' W 121°53'0 0.2
2018-Apr-26 12:30N 36°37' W 121°53'0 0.6
2018-Apr-26 11:58N 36°36' W 121°53'0 0.0
2018-Apr-26 11:28N 36°36' W 121°53'0 0.2
2018-Apr-26 10:58N 36°36' W 121°53'96 4.2
2018-Apr-25 12:04N 35°09' W 121°05'1 7.8
2018-Apr-25 11:59N 35°08' W 121°05'4 7.6
2018-Apr-25 11:30N 35°05' W 121°03'4 7.4
2018-Apr-25 11:00N 35°02' W 121°00'4 7.6
2018-Apr-25 10:28N 34°59' W 120°58'4 7.6
2018-Apr-25 09:58N 34°55' W 120°56'4 7.9
2018-Apr-25 09:30N 34°52' W 120°53'4 7.9
2018-Apr-25 08:59N 34°48' W 120°51'4 7.9
2018-Apr-25 08:29N 34°45' W 120°49'5 7.9
2018-Apr-25 07:52N 34°41' W 120°45'10 7.8
2018-Apr-25 06:38N 34°33' W 120°39'1 7.8
2018-Apr-25 06:30N 34°32' W 120°38'4 7.8
2018-Apr-25 05:59N 34°30' W 120°34'4 7.8
2018-Apr-25 05:30N 34°28' W 120°31'4 7.8
2018-Apr-25 05:00N 34°26' W 120°26'4 8.2
2018-Apr-25 04:29N 34°25' W 120°21'4 8.4
2018-Apr-25 03:59N 34°24' W 120°17'4 8.5
2018-Apr-25 03:30N 34°23' W 120°11'4 8.6
2018-Apr-25 02:59N 34°22' W 120°06'4 8.5
2018-Apr-25 02:29N 34°21' W 120°01'4 8.4
2018-Apr-25 02:00N 34°21' W 119°56'4 8.1
2018-Apr-25 01:29N 34°20' W 119°51'5 8.0
2018-Apr-25 00:54N 34°19' W 119°46'3 8.0
2018-Apr-25 00:29N 34°18' W 119°42'4 7.8
2018-Apr-24 23:58N 34°18' W 119°37'4 7.5
2018-Apr-24 23:30N 34°17' W 119°33'4 7.5
2018-Apr-24 22:59N 34°16' W 119°28'4 7.5
2018-Apr-24 22:29N 34°16' W 119°24'4 7.6
2018-Apr-24 21:58N 34°15' W 119°19'  
Track history (hours):
 
Tides and Currents Weather Stations Pressure Air Temp Water Temp Dewpoint Dewpoint Depression Visibility Wind Speed Wind Dir Waves Ship Positions

Karen Sue

Owner: Karen Sue, LLC, Ventura, CA. More information available from US FCC via Universal Licensing System and Coast Guard Vessel Documentation Center.

Last reported at 2018-Apr-27 13:52 UTC. Time now 2018-May-26 03:53 UTC.
Position N 36°37' W 121°54'.
Warning: this ship's position is 28 days out of date.

Length 20 m.

Type: Fishing. MMSI: 367688090.

Date/timePositionNaut miles runAvg speedWind from/ knotsBaromVisibWave heightAir tempDewpointWater temp
2018-Apr-27 13:52N 36°37' W 121°54'1 2.0
2018-Apr-27 13:27N 36°36' W 121°53'0 0.0
2018-Apr-27 12:57N 36°36' W 121°53'0 0.0
2018-Apr-27 12:27N 36°36' W 121°53'0 0.0
2018-Apr-27 11:57N 36°36' W 121°53'0 0.0
2018-Apr-27 11:27N 36°36' W 121°53'0 0.0
2018-Apr-27 10:57N 36°36' W 121°53'0 0.0
2018-Apr-27 10:27N 36°36' W 121°53'0 0.0
2018-Apr-27 09:57N 36°36' W 121°53'0 0.4
2018-Apr-27 09:21N 36°36' W 121°53'0 0.0
2018-Apr-27 08:51N 36°36' W 121°53'0 0.0
2018-Apr-27 08:30N 36°36' W 121°53'0 0.1
2018-Apr-27 07:26N 36°36' W 121°53'1 0.9
2018-Apr-27 05:51N 36°37' W 121°52'0 0.2
2018-Apr-27 04:12N 36°37' W 121°52'0 0.1
2018-Apr-27 03:59N 36°37' W 121°52'2 0.9
2018-Apr-27 02:07N 36°38' W 121°54'1 7.7
2018-Apr-27 01:58N 36°38' W 121°52'1 1.0
2018-Apr-27 01:14N 36°37' W 121°52'0 0.4
2018-Apr-27 00:44N 36°37' W 121°52'0 0.2
2018-Apr-27 00:28N 36°37' W 121°52'1 0.5
2018-Apr-26 21:52N 36°37' W 121°53'0 0.0
2018-Apr-26 21:22N 36°37' W 121°53'0 0.0
2018-Apr-26 20:52N 36°37' W 121°53'0 0.0
2018-Apr-26 20:16N 36°37' W 121°53'0 0.0
2018-Apr-26 19:58N 36°37' W 121°53'0 0.0
2018-Apr-26 19:22N 36°37' W 121°53'0 0.0
2018-Apr-26 18:46N 36°37' W 121°53'0 0.0
2018-Apr-26 18:19N 36°37' W 121°53'0 0.0
2018-Apr-26 17:55N 36°37' W 121°53'0 0.0
2018-Apr-26 17:25N 36°37' W 121°53'0 0.0
2018-Apr-26 16:55N 36°37' W 121°53'0 0.0
2018-Apr-26 16:22N 36°37' W 121°53'1 0.4
2018-Apr-26 13:59N 36°38' W 121°54'1 1.8
2018-Apr-26 13:13N 36°37' W 121°53'0 0.0
2018-Apr-26 12:49N 36°37' W 121°53'0 0.2
2018-Apr-26 12:30N 36°37' W 121°53'0 0.6
2018-Apr-26 11:58N 36°36' W 121°53'0 0.0
2018-Apr-26 11:28N 36°36' W 121°53'0 0.2
2018-Apr-26 10:58N 36°36' W 121°53'96 4.2
2018-Apr-25 12:04N 35°09' W 121°05'1 7.8
2018-Apr-25 11:59N 35°08' W 121°05'4 7.6
2018-Apr-25 11:30N 35°05' W 121°03'4 7.4
2018-Apr-25 11:00N 35°02' W 121°00'4 7.6
2018-Apr-25 10:28N 34°59' W 120°58'4 7.6
2018-Apr-25 09:58N 34°55' W 120°56'4 7.9
2018-Apr-25 09:30N 34°52' W 120°53'4 7.9
2018-Apr-25 08:59N 34°48' W 120°51'4 7.9
2018-Apr-25 08:29N 34°45' W 120°49'5 7.9
2018-Apr-25 07:52N 34°41' W 120°45'10 7.8
2018-Apr-25 06:38N 34°33' W 120°39'1 7.8
2018-Apr-25 06:30N 34°32' W 120°38'4 7.8
2018-Apr-25 05:59N 34°30' W 120°34'4 7.8
2018-Apr-25 05:30N 34°28' W 120°31'4 7.8
2018-Apr-25 05:00N 34°26' W 120°26'4 8.2
2018-Apr-25 04:29N 34°25' W 120°21'4 8.4
2018-Apr-25 03:59N 34°24' W 120°17'4 8.5
2018-Apr-25 03:30N 34°23' W 120°11'4 8.6
2018-Apr-25 02:59N 34°22' W 120°06'4 8.5
2018-Apr-25 02:29N 34°21' W 120°01'4 8.4
2018-Apr-25 02:00N 34°21' W 119°56'4 8.1
2018-Apr-25 01:29N 34°20' W 119°51'5 8.0
2018-Apr-25 00:54N 34°19' W 119°46'3 8.0
2018-Apr-25 00:29N 34°18' W 119°42'4 7.8
2018-Apr-24 23:58N 34°18' W 119°37'4 7.5
2018-Apr-24 23:30N 34°17' W 119°33'4 7.5
2018-Apr-24 22:59N 34°16' W 119°28'4 7.5
2018-Apr-24 22:29N 34°16' W 119°24'4 7.6
2018-Apr-24 21:58N 34°15' W 119°19'  

Dump ship's entire track history